sensor_id;sensor_type;location;lat;lon;timestamp;P1;durP1;ratioP1;P2;durP2;ratioP2
15557;SDS011;7880;50.110;9.372;2023-08-20T00:01:30;8.238461538461536;;;6.330769230769231;;
15557;SDS011;7880;50.110;9.372;2023-08-20T00:06:35;6.299999999999998;;;5.700000000000002;;
15557;SDS011;7880;50.110;9.372;2023-08-20T00:11:44;7.0;;;6.299999999999998;;
15557;SDS011;7880;50.110;9.372;2023-08-20T00:16:45;8.638461538461538;;;6.130769230769232;;
15557;SDS011;7880;50.110;9.372;2023-08-20T00:21:55;6.13846153846154;;;5.46923076923077;;
15557;SDS011;7880;50.110;9.372;2023-08-20T00:27:10;8.507692307692306;;;5.43076923076923;;
15557;SDS011;7880;50.110;9.372;2023-08-20T00:32:04;7.469230769230771;;;5.8307692307692305;;
15557;SDS011;7880;50.110;9.372;2023-08-20T00:37:16;8.430769230769231;;;5.4;;
15557;SDS011;7880;50.110;9.372;2023-08-20T00:42:08;5.369230769230768;;;4.869230769230769;;
15557;SDS011;7880;50.110;9.372;2023-08-20T00:47:25;9.86153846153846;;;5.799999999999998;;
15557;SDS011;7880;50.110;9.372;2023-08-20T00:52:33;11.661538461538457;;;5.569230769230769;;
15557;SDS011;7880;50.110;9.372;2023-08-20T00:57:44;6.43076923076923;;;5.3307692307692305;;
15557;SDS011;7880;50.110;9.372;2023-08-20T01:02:43;11.630769230769229;;;5.93076923076923;;
15557;SDS011;7880;50.110;9.372;2023-08-20T01:07:54;6.60769230769231;;;5.769230769230769;;
15557;SDS011;7880;50.110;9.372;2023-08-20T01:12:55;6.599999999999999;;;5.9;;
15557;SDS011;7880;50.110;9.372;2023-08-20T01:18:11;7.738461538461536;;;5.130769230769232;;
15557;SDS011;7880;50.110;9.372;2023-08-20T01:23:19;6.4;;;5.799999999999998;;
15557;SDS011;7880;50.110;9.372;2023-08-20T01:28:22;6.769230769230769;;;4.93076923076923;;
15557;SDS011;7880;50.110;9.372;2023-08-20T01:33:31;8.938461538461539;;;5.9;;
15557;SDS011;7880;50.110;9.372;2023-08-20T01:38:35;6.900000000000001;;;5.730769230769231;;
15557;SDS011;7880;50.110;9.372;2023-08-20T01:43:42;8.599999999999998;;;5.461538461538459;;
15557;SDS011;7880;50.110;9.372;2023-08-20T01:48:54;7.369230769230768;;;5.6;;
15557;SDS011;7880;50.110;9.372;2023-08-20T01:54:02;6.799999999999998;;;6.1;;
15557;SDS011;7880;50.110;9.372;2023-08-20T01:59:13;8.307692307692307;;;5.700000000000002;;
15557;SDS011;7880;50.110;9.372;2023-08-20T02:04:12;6.738461538461536;;;5.1692307692307695;;
15557;SDS011;7880;50.110;9.372;2023-08-20T02:09:19;9.176923076923076;;;5.1692307692307695;;
15557;SDS011;7880;50.110;9.372;2023-08-20T02:14:22;7.430769230769233;;;5.630769230769232;;
15557;SDS011;7880;50.110;9.372;2023-08-20T02:19:26;8.83846153846154;;;5.9;;
15557;SDS011;7880;50.110;9.372;2023-08-20T02:24:35;6.969230769230771;;;5.561538461538462;;
15557;SDS011;7880;50.110;9.372;2023-08-20T02:29:39;9.607692307692309;;;5.730769230769231;;
15557;SDS011;7880;50.110;9.372;2023-08-20T02:34:41;11.446153846153843;;;5.6692307692307695;;
15557;SDS011;7880;50.110;9.372;2023-08-20T02:39:49;8.44615384615385;;;5.799999999999998;;
15557;SDS011;7880;50.110;9.372;2023-08-20T02:44:56;10.592307692307694;;;6.200000000000002;;
15557;SDS011;7880;50.110;9.372;2023-08-20T02:49:56;6.169230769230769;;;5.56923076923077;;
15557;SDS011;7880;50.110;9.372;2023-08-20T02:55:01;9.992307692307694;;;6.700000000000002;;
15557;SDS011;7880;50.110;9.372;2023-08-20T03:00:16;6.961538461538459;;;6.261538461538464;;
15557;SDS011;7880;50.110;9.372;2023-08-20T03:05:12;8.438461538461537;;;6.43076923076923;;
15557;SDS011;7880;50.110;9.372;2023-08-20T03:10:41;6.86153846153846;;;6.161538461538462;;
15557;SDS011;7880;50.110;9.372;2023-08-20T03:15:25;6.799999999999998;;;6.1;;
15557;SDS011;7880;50.110;9.372;2023-08-20T03:20:31;8.438461538461537;;;6.230769230769231;;
15557;SDS011;7880;50.110;9.372;2023-08-20T03:25:48;10.546153846153848;;;6.769230769230769;;
15557;SDS011;7880;50.110;9.372;2023-08-20T03:30:59;9.169230769230769;;;6.030769230769229;;
15557;SDS011;7880;50.110;9.372;2023-08-20T03:36:04;6.93846153846154;;;5.76153846153846;;
15557;SDS011;7880;50.110;9.372;2023-08-20T03:40:58;6.838461538461539;;;5.969230769230771;;
15557;SDS011;7880;50.110;9.372;2023-08-20T03:46:02;9.976923076923075;;;5.969230769230771;;
15557;SDS011;7880;50.110;9.372;2023-08-20T03:50:12;9.838461538461539;;;6.276923076923079;;
15557;SDS011;7880;50.110;9.372;2023-08-20T03:55:12;6.799999999999998;;;5.192307692307693;;
15557;SDS011;7880;50.110;9.372;2023-08-20T04:00:19;8.569230769230769;;;6.0;;
15557;SDS011;7880;50.110;9.372;2023-08-20T04:05:24;7.353846153846155;;;5.630769230769232;;
15557;SDS011;7880;50.110;9.372;2023-08-20T04:10:31;6.338461538461538;;;5.769230769230769;;
15557;SDS011;7880;50.110;9.372;2023-08-20T04:15:44;9.207692307692309;;;5.730769230769231;;
15557;SDS011;7880;50.110;9.372;2023-08-20T04:20:50;8.538461538461538;;;5.6;;
15557;SDS011;7880;50.110;9.372;2023-08-20T04:25:55;8.538461538461538;;;4.961538461538461;;
15557;SDS011;7880;50.110;9.372;2023-08-20T04:31:07;6.430769230769233;;;5.200000000000001;;
15557;SDS011;7880;50.110;9.372;2023-08-20T04:36:04;5.9;;;5.299999999999999;;
15557;SDS011;7880;50.110;9.372;2023-08-20T04:41:15;9.607692307692309;;;6.599999999999999;;
15557;SDS011;7880;50.110;9.372;2023-08-20T04:46:18;8.238461538461536;;;5.630769230769232;;
15557;SDS011;7880;50.110;9.372;2023-08-20T04:51:28;7.169230769230769;;;5.6;;
15557;SDS011;7880;50.110;9.372;2023-08-20T04:56:26;6.092307692307691;;;4.8999999999999995;;
15557;SDS011;7880;50.110;9.372;2023-08-20T05:01:54;6.753846153846153;;;5.799999999999998;;
15557;SDS011;7880;50.110;9.372;2023-08-20T05:06:37;7.192307692307694;;;5.4;;
15557;SDS011;7880;50.110;9.372;2023-08-20T05:11:44;5.6;;;5.1000000000000005;;
15557;SDS011;7880;50.110;9.372;2023-08-20T05:16:50;6.0;;;5.4;;
15557;SDS011;7880;50.110;9.372;2023-08-20T05:22:12;7.007692307692308;;;4.700000000000001;;
15557;SDS011;7880;50.110;9.372;2023-08-20T05:27:04;5.700000000000002;;;5.1000000000000005;;
15557;SDS011;7880;50.110;9.372;2023-08-20T05:32:07;7.56923076923077;;;4.830769230769231;;
15557;SDS011;7880;50.110;9.372;2023-08-20T05:37:08;8.46153846153846;;;4.730769230769231;;
15557;SDS011;7880;50.110;9.372;2023-08-20T05:42:12;6.599999999999999;;;4.161538461538461;;
15557;SDS011;7880;50.110;9.372;2023-08-20T05:47:23;5.969230769230771;;;4.569230769230769;;
15557;SDS011;7880;50.110;9.372;2023-08-20T05:52:24;8.007692307692306;;;5.299999999999999;;
15557;SDS011;7880;50.110;9.372;2023-08-20T05:57:29;5.930769230769231;;;4.430769230769231;;
15557;SDS011;7880;50.110;9.372;2023-08-20T06:02:33;4.799999999999999;;;4.299999999999999;;
15557;SDS011;7880;50.110;9.372;2023-08-20T06:07:42;5.4;;;4.8999999999999995;;
15557;SDS011;7880;50.110;9.372;2023-08-20T06:12:45;6.63846153846154;;;4.769230769230769;;
15557;SDS011;7880;50.110;9.372;2023-08-20T06:17:52;5.6;;;5.1000000000000005;;
15557;SDS011;7880;50.110;9.372;2023-08-20T06:22:57;6.807692307692306;;;5.269230769230769;;
15557;SDS011;7880;50.110;9.372;2023-08-20T06:28:03;5.738461538461537;;;4.8999999999999995;;
15557;SDS011;7880;50.110;9.372;2023-08-20T06:33:07;6.469230769230771;;;5.230769230769231;;
15557;SDS011;7880;50.110;9.372;2023-08-20T06:38:11;6.469230769230771;;;5.1000000000000005;;
15557;SDS011;7880;50.110;9.372;2023-08-20T06:43:16;5.799999999999998;;;5.200000000000001;;
15557;SDS011;7880;50.110;9.372;2023-08-20T06:48:23;6.269230769230767;;;4.8999999999999995;;
15557;SDS011;7880;50.110;9.372;2023-08-20T06:53:30;6.43846153846154;;;5.23846153846154;;
15557;SDS011;7880;50.110;9.372;2023-08-20T06:58:33;5.46923076923077;;;4.799999999999999;;
15557;SDS011;7880;50.110;9.372;2023-08-20T07:03:42;6.869230769230768;;;5.3307692307692305;;
15557;SDS011;7880;50.110;9.372;2023-08-20T07:08:43;6.830769230769231;;;5.200000000000001;;
15557;SDS011;7880;50.110;9.372;2023-08-20T07:13:49;5.06923076923077;;;3.899999999999999;;
15557;SDS011;7880;50.110;9.372;2023-08-20T07:18:54;5.86153846153846;;;4.130769230769232;;
15557;SDS011;7880;50.110;9.372;2023-08-20T07:24:00;6.207692307692307;;;4.269230769230769;;
15557;SDS011;7880;50.110;9.372;2023-08-20T07:29:06;4.6000000000000005;;;4.0307692307692315;;
15557;SDS011;7880;50.110;9.372;2023-08-20T07:34:13;8.03846153846154;;;4.430769230769231;;
15557;SDS011;7880;50.110;9.372;2023-08-20T07:39:19;8.03846153846154;;;4.5;;
15557;SDS011;7880;50.110;9.372;2023-08-20T07:44:26;5.807692307692306;;;4.269230769230769;;
15557;SDS011;7880;50.110;9.372;2023-08-20T07:49:34;7.707692307692307;;;4.299999999999999;;
15557;SDS011;7880;50.110;9.372;2023-08-20T07:54:37;5.061538461538462;;;4.33076923076923;;
15557;SDS011;7880;50.110;9.372;2023-08-20T07:59:44;5.1692307692307695;;;4.6692307692307695;;
15557;SDS011;7880;50.110;9.372;2023-08-20T08:04:48;5.953846153846153;;;4.2615384615384615;;
15557;SDS011;7880;50.110;9.372;2023-08-20T08:09:51;5.915384615384617;;;4.630769230769232;;
15557;SDS011;7880;50.110;9.372;2023-08-20T08:14:57;6.10769230769231;;;4.2384615384615385;;
15557;SDS011;7880;50.110;9.372;2023-08-20T08:20:03;5.569230769230767;;;4.461538461538462;;
15557;SDS011;7880;50.110;9.372;2023-08-20T08:25:08;5.3307692307692305;;;4.700000000000001;;
15557;SDS011;7880;50.110;9.372;2023-08-20T08:30:14;5.5;;;4.8999999999999995;;
15557;SDS011;7880;50.110;9.372;2023-08-20T08:35:19;7.707692307692307;;;4.3999999999999995;;
15557;SDS011;7880;50.110;9.372;2023-08-20T08:40:29;5.4;;;4.6692307692307695;;
15557;SDS011;7880;50.110;9.372;2023-08-20T08:45:31;9.376923076923076;;;5.5;;
15557;SDS011;7880;50.110;9.372;2023-08-20T08:50:38;6.069230769230769;;;5.5;;
15557;SDS011;7880;50.110;9.372;2023-08-20T08:54:19;8.253846153846155;;;5.4;;
15557;SDS011;7880;50.110;9.372;2023-08-20T08:59:26;5.9;;;4.630769230769232;;
15557;SDS011;7880;50.110;9.372;2023-08-20T09:04:35;7.061538461538461;;;5.230769230769232;;
15557;SDS011;7880;50.110;9.372;2023-08-20T09:09:37;7.838461538461539;;;6.06923076923077;;
15557;SDS011;7880;50.110;9.372;2023-08-20T09:14:45;5.5;;;5.0;;
15557;SDS011;7880;50.110;9.372;2023-08-20T09:19:47;5.8307692307692305;;;5.299999999999999;;
15557;SDS011;7880;50.110;9.372;2023-08-20T09:24:53;8.307692307692307;;;5.299999999999999;;
15557;SDS011;7880;50.110;9.372;2023-08-20T09:30:01;11.146153846153844;;;5.1000000000000005;;
15557;SDS011;7880;50.110;9.372;2023-08-20T09:35:07;10.423076923076922;;;5.8307692307692305;;
15557;SDS011;7880;50.110;9.372;2023-08-20T09:40:13;7.238461538461536;;;5.4;;
15557;SDS011;7880;50.110;9.372;2023-08-20T09:45:18;7.400000000000001;;;5.53076923076923;;
15557;SDS011;7880;50.110;9.372;2023-08-20T09:50:22;5.561538461538462;;;5.130769230769232;;
15557;SDS011;7880;50.110;9.372;2023-08-20T09:55:29;9.007692307692306;;;5.369230769230768;;
15557;SDS011;7880;50.110;9.372;2023-08-20T10:00:34;5.9;;;5.03076923076923;;
15557;SDS011;7880;50.110;9.372;2023-08-20T10:05:52;8.007692307692306;;;5.130769230769232;;
15557;SDS011;7880;50.110;9.372;2023-08-20T10:10:45;7.623076923076923;;;5.130769230769232;;
15557;SDS011;7880;50.110;9.372;2023-08-20T10:15:48;6.86153846153846;;;4.93076923076923;;
15557;SDS011;7880;50.110;9.372;2023-08-20T10:20:56;7.238461538461538;;;5.361538461538462;;
15557;SDS011;7880;50.110;9.372;2023-08-20T10:26:06;6.038461538461541;;;4.5;;
15557;SDS011;7880;50.110;9.372;2023-08-20T10:31:06;5.4;;;5.0;;
15557;SDS011;7880;50.110;9.372;2023-08-20T10:36:15;7.769230769230767;;;4.700000000000001;;
15557;SDS011;7880;50.110;9.372;2023-08-20T10:41:18;5.969230769230771;;;4.6000000000000005;;
15557;SDS011;7880;50.110;9.372;2023-08-20T10:46:27;5.4;;;4.830769230769231;;
15557;SDS011;7880;50.110;9.372;2023-08-20T10:51:28;5.638461538461538;;;4.799999999999999;;
15557;SDS011;7880;50.110;9.372;2023-08-20T10:56:41;6.723076923076923;;;4.799999999999999;;
15557;SDS011;7880;50.110;9.372;2023-08-20T11:01:39;6.169230769230769;;;4.8999999999999995;;
15557;SDS011;7880;50.110;9.372;2023-08-20T11:06:52;12.146153846153847;;;5.46923076923077;;
15557;SDS011;7880;50.110;9.372;2023-08-20T11:11:49;5.1000000000000005;;;4.700000000000001;;
15557;SDS011;7880;50.110;9.372;2023-08-20T11:16:54;6.038461538461541;;;4.799999999999999;;
15557;SDS011;7880;50.110;9.372;2023-08-20T11:21:59;7.538461538461541;;;4.799999999999999;;
15557;SDS011;7880;50.110;9.372;2023-08-20T11:27:06;5.838461538461538;;;3.7692307692307705;;
15557;SDS011;7880;50.110;9.372;2023-08-20T11:32:12;5.53076923076923;;;3.969230769230769;;
15557;SDS011;7880;50.110;9.372;2023-08-20T11:37:20;5.423076923076923;;;4.161538461538461;;
15557;SDS011;7880;50.110;9.372;2023-08-20T11:42:29;4.092307692307691;;;3.761538461538461;;
15557;SDS011;7880;50.110;9.372;2023-08-20T11:47:29;5.8461538461538485;;;4.430769230769231;;
15557;SDS011;7880;50.110;9.372;2023-08-20T11:52:36;7.63846153846154;;;4.200000000000001;;
15557;SDS011;7880;50.110;9.372;2023-08-20T11:57:41;4.8999999999999995;;;4.3999999999999995;;
15557;SDS011;7880;50.110;9.372;2023-08-20T12:02:51;6.738461538461536;;;4.799999999999999;;
15557;SDS011;7880;50.110;9.372;2023-08-20T12:07:54;7.061538461538462;;;4.661538461538462;;
15557;SDS011;7880;50.110;9.372;2023-08-20T12:12:57;7.007692307692308;;;4.6692307692307695;;
15557;SDS011;7880;50.110;9.372;2023-08-20T12:18:05;7.053846153846155;;;4.8076923076923075;;
15557;SDS011;7880;50.110;9.372;2023-08-20T12:23:09;8.876923076923076;;;4.269230769230769;;
15557;SDS011;7880;50.110;9.372;2023-08-20T12:28:19;7.0;;;4.23076923076923;;
15557;SDS011;7880;50.110;9.372;2023-08-20T12:33:21;5.438461538461538;;;4.369230769230769;;
15557;SDS011;7880;50.110;9.372;2023-08-20T12:38:26;5.438461538461538;;;4.299999999999999;;
15557;SDS011;7880;50.110;9.372;2023-08-20T12:43:40;5.1000000000000005;;;4.6000000000000005;;
15557;SDS011;7880;50.110;9.372;2023-08-20T12:48:37;4.361538461538462;;;4.0307692307692315;;
15557;SDS011;7880;50.110;9.372;2023-08-20T12:53:43;4.369230769230769;;;3.969230769230769;;
15557;SDS011;7880;50.110;9.372;2023-08-20T12:58:47;7.738461538461536;;;4.200000000000001;;
15557;SDS011;7880;50.110;9.372;2023-08-20T13:03:54;5.930769230769231;;;4.3999999999999995;;
15557;SDS011;7880;50.110;9.372;2023-08-20T13:08:59;8.853846153846156;;;3.899999999999999;;
15557;SDS011;7880;50.110;9.372;2023-08-20T13:14:11;6.692307692307694;;;3.5;;
15557;SDS011;7880;50.110;9.372;2023-08-20T13:19:07;4.630769230769232;;;3.0;;
15557;SDS011;7880;50.110;9.372;2023-08-20T13:24:11;4.161538461538462;;;3.2;;
15557;SDS011;7880;50.110;9.372;2023-08-20T13:29:16;4.96923076923077;;;3.100000000000001;;
15557;SDS011;7880;50.110;9.372;2023-08-20T13:34:22;3.3307692307692305;;;3.030769230769231;;
15557;SDS011;7880;50.110;9.372;2023-08-20T13:39:26;6.207692307692307;;;3.56923076923077;;
15557;SDS011;7880;50.110;9.372;2023-08-20T13:44:32;3.399999999999999;;;2.8;;
15557;SDS011;7880;50.110;9.372;2023-08-20T13:49:41;5.738461538461537;;;3.5;;
15557;SDS011;7880;50.110;9.372;2023-08-20T13:54:45;6.923076923076921;;;3.399999999999999;;
15557;SDS011;7880;50.110;9.372;2023-08-20T13:58:29;3.8615384615384603;;;3.5615384615384618;;
15557;SDS011;7880;50.110;9.372;2023-08-20T14:03:33;4.33076923076923;;;3.93076923076923;;
15557;SDS011;7880;50.110;9.372;2023-08-20T14:08:40;4.33076923076923;;;3.93076923076923;;
15557;SDS011;7880;50.110;9.372;2023-08-20T14:13:44;4.8999999999999995;;;4.200000000000001;;
15557;SDS011;7880;50.110;9.372;2023-08-20T14:18:51;4.469230769230769;;;3.899999999999999;;
15557;SDS011;7880;50.110;9.372;2023-08-20T14:23:53;6.469230769230771;;;4.299999999999999;;
15557;SDS011;7880;50.110;9.372;2023-08-20T14:28:59;5.200000000000001;;;4.700000000000001;;
15557;SDS011;7880;50.110;9.372;2023-08-20T14:34:04;6.161538461538461;;;4.799999999999999;;
15557;SDS011;7880;50.110;9.372;2023-08-20T14:39:06;7.238461538461536;;;4.5;;
15557;SDS011;7880;50.110;9.372;2023-08-20T14:44:11;7.707692307692307;;;4.938461538461538;;
15557;SDS011;7880;50.110;9.372;2023-08-20T14:49:19;6.838461538461539;;;3.899999999999999;;
15557;SDS011;7880;50.110;9.372;2023-08-20T14:54:21;7.053846153846155;;;4.3999999999999995;;
15557;SDS011;7880;50.110;9.372;2023-08-20T14:59:26;7.0;;;4.8999999999999995;;
15557;SDS011;7880;50.110;9.372;2023-08-20T15:04:30;5.038461538461539;;;3.869230769230768;;
15557;SDS011;7880;50.110;9.372;2023-08-20T15:09:36;4.269230769230769;;;3.869230769230768;;
15557;SDS011;7880;50.110;9.372;2023-08-20T15:14:42;8.407692307692308;;;4.299999999999999;;
15557;SDS011;7880;50.110;9.372;2023-08-20T15:19:48;7.307692307692306;;;3.7000000000000006;;
15557;SDS011;7880;50.110;9.372;2023-08-20T15:24:55;7.676923076923078;;;4.1000000000000005;;
15557;SDS011;7880;50.110;9.372;2023-08-20T15:29:58;7.207692307692307;;;4.200000000000001;;
15557;SDS011;7880;50.110;9.372;2023-08-20T15:35:06;6.869230769230768;;;3.600000000000001;;
15557;SDS011;7880;50.110;9.372;2023-08-20T15:40:11;6.207692307692307;;;3.56923076923077;;
15557;SDS011;7880;50.110;9.372;2023-08-20T15:45:14;8.607692307692309;;;4.0;;
15557;SDS011;7880;50.110;9.372;2023-08-20T15:50:16;6.10769230769231;;;3.399999999999999;;
15557;SDS011;7880;50.110;9.372;2023-08-20T15:55:22;7.776923076923079;;;3.5;;
15557;SDS011;7880;50.110;9.372;2023-08-20T16:00:29;4.299999999999999;;;2.93076923076923;;
15557;SDS011;7880;50.110;9.372;2023-08-20T16:05:35;3.5;;;3.2;;
15557;SDS011;7880;50.110;9.372;2023-08-20T16:10:40;5.969230769230771;;;3.100000000000001;;
15557;SDS011;7880;50.110;9.372;2023-08-20T16:15:47;4.06923076923077;;;3.100000000000001;;
15557;SDS011;7880;50.110;9.372;2023-08-20T16:20:46;4.053846153846153;;;2.93076923076923;;
15557;SDS011;7880;50.110;9.372;2023-08-20T16:25:51;4.6000000000000005;;;3.5;;
15557;SDS011;7880;50.110;9.372;2023-08-20T16:30:56;5.369230769230768;;;3.0;;
15557;SDS011;7880;50.110;9.372;2023-08-20T16:36:03;3.561538461538462;;;3.2307692307692295;;
15557;SDS011;7880;50.110;9.372;2023-08-20T16:41:07;5.523076923076922;;;3.030769230769231;;
15557;SDS011;7880;50.110;9.372;2023-08-20T16:46:11;3.899999999999999;;;3.5;;
15557;SDS011;7880;50.110;9.372;2023-08-20T16:51:22;3.8846153846153837;;;3.130769230769232;;
15557;SDS011;7880;50.110;9.372;2023-08-20T16:56:24;3.261538461538461;;;2.5;;
15557;SDS011;7880;50.110;9.372;2023-08-20T17:01:29;4.438461538461538;;;3.0;;
15557;SDS011;7880;50.110;9.372;2023-08-20T17:06:33;6.738461538461536;;;3.2;;
15557;SDS011;7880;50.110;9.372;2023-08-20T17:11:38;3.3615384615384616;;;2.9615384615384617;;
15557;SDS011;7880;50.110;9.372;2023-08-20T17:16:42;4.869230769230769;;;3.030769230769231;;
15557;SDS011;7880;50.110;9.372;2023-08-20T17:21:45;4.123076923076923;;;2.7;;
15557;SDS011;7880;50.110;9.372;2023-08-20T17:26:48;4.738461538461538;;;2.7;;
15557;SDS011;7880;50.110;9.372;2023-08-20T17:31:55;7.976923076923077;;;2.7692307692307705;;
15557;SDS011;7880;50.110;9.372;2023-08-20T17:37:04;4.6692307692307695;;;2.93076923076923;;
15557;SDS011;7880;50.110;9.372;2023-08-20T17:42:06;5.6230769230769235;;;2.969230769230769;;
15557;SDS011;7880;50.110;9.372;2023-08-20T17:47:12;5.1692307692307695;;;2.899999999999999;;
15557;SDS011;7880;50.110;9.372;2023-08-20T17:52:21;5.238461538461538;;;3.130769230769232;;
15557;SDS011;7880;50.110;9.372;2023-08-20T17:57:27;4.700000000000001;;;3.06923076923077;;
15557;SDS011;7880;50.110;9.372;2023-08-20T18:02:45;5.769230769230769;;;3.469230769230769;;
15557;SDS011;7880;50.110;9.372;2023-08-20T18:07:39;4.06923076923077;;;2.899999999999999;;
15557;SDS011;7880;50.110;9.372;2023-08-20T18:12:46;4.161538461538461;;;3.5;;
15557;SDS011;7880;50.110;9.372;2023-08-20T18:17:46;7.5;;;3.030769230769231;;
15557;SDS011;7880;50.110;9.372;2023-08-20T18:22:59;6.738461538461536;;;3.0;;
15557;SDS011;7880;50.110;9.372;2023-08-20T18:27:55;5.038461538461539;;;3.2;;
15557;SDS011;7880;50.110;9.372;2023-08-20T18:33:03;6.369230769230768;;;3.030769230769231;;
15557;SDS011;7880;50.110;9.372;2023-08-20T18:38:14;4.938461538461538;;;3.2692307692307705;;
15557;SDS011;7880;50.110;9.372;2023-08-20T18:43:19;6.438461538461538;;;3.100000000000001;;
15557;SDS011;7880;50.110;9.372;2023-08-20T18:48:20;3.338461538461539;;;2.969230769230769;;
15557;SDS011;7880;50.110;9.372;2023-08-20T18:53:24;7.376923076923076;;;3.361538461538461;;
15557;SDS011;7880;50.110;9.372;2023-08-20T18:58:32;8.676923076923076;;;3.56923076923077;;
15557;SDS011;7880;50.110;9.372;2023-08-20T19:02:37;4.523076923076922;;;3.399999999999999;;
15557;SDS011;7880;50.110;9.372;2023-08-20T19:07:47;7.599999999999999;;;3.2;;
15557;SDS011;7880;50.110;9.372;2023-08-20T19:12:49;6.0076923076923086;;;3.7692307692307705;;
15557;SDS011;7880;50.110;9.372;2023-08-20T19:17:56;3.7692307692307705;;;3.2;;
15557;SDS011;7880;50.110;9.372;2023-08-20T19:23:00;5.369230769230768;;;3.899999999999999;;
15557;SDS011;7880;50.110;9.372;2023-08-20T19:28:03;5.038461538461539;;;3.5;;
15557;SDS011;7880;50.110;9.372;2023-08-20T19:33:17;6.615384615384615;;;3.5;;
15557;SDS011;7880;50.110;9.372;2023-08-20T19:38:13;4.676923076923078;;;3.530769230769231;;
15557;SDS011;7880;50.110;9.372;2023-08-20T19:43:17;6.461538461538462;;;3.161538461538461;;
15557;SDS011;7880;50.110;9.372;2023-08-20T19:48:30;4.799999999999999;;;3.100000000000001;;
15557;SDS011;7880;50.110;9.372;2023-08-20T19:53:40;4.469230769230769;;;3.2;;
15557;SDS011;7880;50.110;9.372;2023-08-20T19:58:41;6.269230769230769;;;3.2999999999999994;;
15557;SDS011;7880;50.110;9.372;2023-08-20T20:03:47;7.56923076923077;;;3.3307692307692305;;
15557;SDS011;7880;50.110;9.372;2023-08-20T20:08:51;6.538461538461541;;;3.600000000000001;;
15557;SDS011;7880;50.110;9.372;2023-08-20T20:13:56;5.753846153846154;;;3.600000000000001;;
15557;SDS011;7880;50.110;9.372;2023-08-20T20:19:21;9.438461538461537;;;3.7999999999999994;;
15557;SDS011;7880;50.110;9.372;2023-08-20T20:24:29;6.807692307692306;;;3.7999999999999994;;
15557;SDS011;7880;50.110;9.372;2023-08-20T20:29:33;10.476923076923079;;;3.93076923076923;;
15557;SDS011;7880;50.110;9.372;2023-08-20T20:34:40;3.561538461538462;;;3.169230769230769;;
15557;SDS011;7880;50.110;9.372;2023-08-20T20:39:45;5.869230769230768;;;4.1000000000000005;;
15557;SDS011;7880;50.110;9.372;2023-08-20T20:44:49;7.876923076923076;;;3.5;;
15557;SDS011;7880;50.110;9.372;2023-08-20T20:49:59;13.14615384615385;;;3.899999999999999;;
15557;SDS011;7880;50.110;9.372;2023-08-20T20:55:00;6.938461538461538;;;3.7000000000000006;;
15557;SDS011;7880;50.110;9.372;2023-08-20T21:00:06;6.438461538461538;;;4.3999999999999995;;
15557;SDS011;7880;50.110;9.372;2023-08-20T21:05:12;7.369230769230768;;;4.0;;
15557;SDS011;7880;50.110;9.372;2023-08-20T21:10:18;3.992307692307693;;;3.646153846153848;;
15557;SDS011;7880;50.110;9.372;2023-08-20T21:20:51;5.799999999999998;;;4.430769230769231;;
15557;SDS011;7880;50.110;9.372;2023-08-20T21:25:52;4.93076923076923;;;4.33076923076923;;
15557;SDS011;7880;50.110;9.372;2023-08-20T21:30:57;5.46923076923077;;;4.06923076923077;;
15557;SDS011;7880;50.110;9.372;2023-08-20T21:36:10;4.469230769230769;;;3.399999999999999;;
15557;SDS011;7880;50.110;9.372;2023-08-20T21:41:07;7.507692307692308;;;4.1000000000000005;;
15557;SDS011;7880;50.110;9.372;2023-08-20T21:46:11;4.6692307692307695;;;4.16923076923077;;
15557;SDS011;7880;50.110;9.372;2023-08-20T21:51:17;4.6692307692307695;;;4.269230769230769;;
15557;SDS011;7880;50.110;9.372;2023-08-20T21:56:21;3.899999999999999;;;3.5;;
15557;SDS011;7880;50.110;9.372;2023-08-20T22:01:26;9.407692307692308;;;4.530769230769231;;
15557;SDS011;7880;50.110;9.372;2023-08-20T22:06:34;10.538461538461538;;;3.7000000000000006;;
15557;SDS011;7880;50.110;9.372;2023-08-20T22:11:36;4.8999999999999995;;;4.3999999999999995;;
15557;SDS011;7880;50.110;9.372;2023-08-20T22:16:43;6.530769230769229;;;4.23076923076923;;
15557;SDS011;7880;50.110;9.372;2023-08-20T22:21:47;5.9923076923076914;;;4.1000000000000005;;
15557;SDS011;7880;50.110;9.372;2023-08-20T22:26:51;6.561538461538462;;;4.5;;
15557;SDS011;7880;50.110;9.372;2023-08-20T22:32:07;5.0076923076923086;;;4.200000000000001;;
15557;SDS011;7880;50.110;9.372;2023-08-20T22:37:12;6.292307692307693;;;4.1000000000000005;;
15557;SDS011;7880;50.110;9.372;2023-08-20T22:42:21;5.038461538461539;;;4.269230769230769;;
15557;SDS011;7880;50.110;9.372;2023-08-20T22:47:30;4.96923076923077;;;3.969230769230769;;
15557;SDS011;7880;50.110;9.372;2023-08-20T22:52:30;6.769230769230769;;;4.0;;
15557;SDS011;7880;50.110;9.372;2023-08-20T22:57:50;6.869230769230768;;;4.530769230769231;;
15557;SDS011;7880;50.110;9.372;2023-08-20T23:02:42;8.530769230769229;;;4.592307692307691;;
15557;SDS011;7880;50.110;9.372;2023-08-20T23:07:46;8.13846153846154;;;4.23076923076923;;